Terminal Aerodrome Forecast
Issued by NWS

Home | Current Version | Previous Version | Text Only | Print | Product List | Glossary On
Versions: 1 2 3 4 5 6 7 8 9 10 11 12 13 14 15 16
000
FTUS41 KGYX 271131
TAFRKD
TAF
KRKD 271131Z 2712/2812 32004KT P6SM BKN080 BKN120
     FM271600 27006KT P6SM SCT120
     FM280000 29004KT P6SM SKC
      AMD LTD TO CLD VIS AND WIND=

USA.gov is the U.S. government's official web portal to all federal, state and local government web resources and services.